Time;durP1;ratioP1;P1;durP2;ratioP2;P2;SDS_P1;SDS_P2;PMS_P1;PMS_P2;Temp;Humidity;BMP_temperature;BMP_pressure;BME280_temperature;BME280_humidity;BME280_pressure;Samples;Min_cycle;Max_cycle;Signal;HPM_P1;HPM_P2
2022/03/11 00:01:15;;;;;;;;;;;2.50;99.90;;;;;;5082292;28;19959;-42
2022/03/11 00:03:41;;;;;;;;;;;2.40;99.90;;;;;;5082418;28;19908;-41
2022/03/11 00:06:07;;;;;;;;;;;2.40;99.90;;;;;;5092626;28;19912;-41
2022/03/11 00:08:32;;;;;;;;;;;2.40;99.90;;;;;;5088136;28;19913;-41
2022/03/11 00:10:58;;;;;;;;;;;2.30;99.90;;;;;;5073758;28;19913;-42
2022/03/11 00:13:24;;;;;;;;;;;2.40;99.90;;;;;;5073999;28;19954;-41
2022/03/11 00:15:50;;;;;;;;;;;2.30;99.90;;;;;;5098298;28;19956;-42
2022/03/11 00:18:16;;;;;;;;;;;2.30;99.90;;;;;;5092583;28;19943;-43
2022/03/11 00:20:42;;;;;;;;;;;2.30;99.90;;;;;;5092949;28;19977;-42
2022/03/11 00:23:07;;;;;;;;;;;2.30;99.90;;;;;;5091441;28;20395;-42
2022/03/11 00:25:34;;;;;;;;;;;2.30;99.90;;;;;;5091879;28;19912;-41
2022/03/11 00:27:59;;;;;;;;;;;2.30;99.90;;;;;;5092592;28;19918;-42
2022/03/11 00:30:28;;;;;;;;;;;2.20;99.90;;;;;;5091490;28;20026;-42
2022/03/11 00:32:54;;;;;;;;;;;2.10;99.90;;;;;;5089469;28;19927;-42
2022/03/11 00:35:19;;;;;;;;;;;2.00;99.90;;;;;;5090502;28;19915;-42
2022/03/11 00:37:45;;;;;;;;;;;2.00;99.90;;;;;;5092561;28;20495;-41
2022/03/11 00:40:13;;;;;;;;;;;2.00;99.90;;;;;;5092698;28;19908;-42
2022/03/11 00:42:39;;;;;;;;;;;1.90;99.60;;;;;;5091304;28;19915;-41
2022/03/11 00:45:04;;;;;;;;;;;1.80;98.60;;;;;;5092827;28;19912;-42
2022/03/11 00:47:30;;;;;;;;;;;1.80;98.80;;;;;;5092336;28;20274;-42
2022/03/11 00:49:55;;;;;;;;;;;1.80;99.10;;;;;;5092427;28;19912;-42
2022/03/11 00:52:21;;;;;;;;;;;1.70;98.70;;;;;;5092604;28;19912;-42
2022/03/11 00:54:46;;;;;;;;;;;1.70;98.60;;;;;;5092249;28;19919;-42
2022/03/11 00:57:12;;;;;;;;;;;1.60;98.50;;;;;;5091534;28;19915;-42
2022/03/11 00:59:37;;;;;;;;;;;1.60;98.50;;;;;;5092356;28;19912;-41
2022/03/11 01:02:03;;;;;;;;;;;1.60;98.00;;;;;;5092231;28;19908;-42
2022/03/11 01:04:28;;;;;;;;;;;1.50;97.70;;;;;;5092286;28;19927;-42
2022/03/11 01:06:54;;;;;;;;;;;1.50;97.40;;;;;;5093539;28;19953;-41
2022/03/11 01:09:19;;;;;;;;;;;1.40;98.10;;;;;;5093893;28;19970;-42
2022/03/11 01:11:45;;;;;;;;;;;1.40;98.00;;;;;;5093459;28;19908;-42
2022/03/11 01:14:10;;;;;;;;;;;1.50;96.80;;;;;;5093503;28;20283;-41
2022/03/11 01:16:36;;;;;;;;;;;1.40;97.00;;;;;;5092603;28;19960;-42
2022/03/11 01:19:02;;;;;;;;;;;1.40;96.80;;;;;;5092310;28;19919;-41
2022/03/11 01:21:27;;;;;;;;;;;1.30;96.70;;;;;;5092341;28;19909;-41
2022/03/11 01:23:53;;;;;;;;;;;1.30;96.60;;;;;;5091857;28;19912;-44
2022/03/11 01:26:19;;;;;;;;;;;1.20;96.20;;;;;;5092128;28;19912;-41
2022/03/11 01:28:44;;;;;;;;;;;1.30;96.40;;;;;;5091800;28;19920;-42
2022/03/11 01:31:11;;;;;;;;;;;1.20;96.50;;;;;;5091970;28;19908;-41
2022/03/11 01:33:39;;;;;;;;;;;1.20;96.70;;;;;;5092237;28;19908;-41
2022/03/11 01:36:05;;;;;;;;;;;1.20;96.60;;;;;;5092098;28;20016;-42
2022/03/11 01:38:31;;;;;;;;;;;1.10;97.60;;;;;;5095197;28;19908;-41
2022/03/11 01:40:56;;;;;;;;;;;1.20;97.50;;;;;;5096219;28;19915;-42
2022/03/11 01:43:22;;;;;;;;;;;1.20;98.20;;;;;;5091457;28;19912;-42
2022/03/11 01:45:47;;;;;;;;;;;1.10;97.10;;;;;;5091085;28;20403;-41
2022/03/11 01:48:13;;;;;;;;;;;1.10;95.70;;;;;;5095643;28;19912;-42
2022/03/11 01:50:40;;;;;;;;;;;1.20;97.10;;;;;;5095999;28;19969;-41
2022/03/11 01:53:06;;;;;;;;;;;1.20;96.20;;;;;;5095774;28;20041;-42
2022/03/11 01:55:32;;;;;;;;;;;1.10;95.60;;;;;;5095411;28;19923;-41
2022/03/11 01:57:58;;;;;;;;;;;1.00;95.60;;;;;;5095503;28;20278;-41
2022/03/11 02:00:23;;;;;;;;;;;1.00;95.40;;;;;;5095807;28;19908;-42
2022/03/11 02:02:49;;;;;;;;;;;1.00;95.70;;;;;;5095336;28;19915;-42
2022/03/11 02:05:17;;;;;;;;;;;1.00;95.70;;;;;;5095039;28;19923;-41
2022/03/11 02:07:43;;;;;;;;;;;1.00;96.20;;;;;;5095726;28;19908;-41
2022/03/11 02:10:09;;;;;;;;;;;1.00;95.60;;;;;;5095311;28;20064;-41
2022/03/11 02:12:35;;;;;;;;;;;0.90;95.30;;;;;;5094820;28;19941;-40
2022/03/11 02:15:01;;;;;;;;;;;0.90;95.40;;;;;;5095089;28;20007;-40
2022/03/11 02:17:27;;;;;;;;;;;0.80;94.90;;;;;;5096383;28;19930;-41
2022/03/11 02:19:52;;;;;;;;;;;0.80;94.70;;;;;;5096618;28;20415;-40
2022/03/11 02:22:20;;;;;;;;;;;0.80;95.30;;;;;;5095579;28;19908;-41
2022/03/11 02:24:46;;;;;;;;;;;0.80;95.10;;;;;;5096369;28;19962;-40
2022/03/11 02:27:11;;;;;;;;;;;0.70;94.90;;;;;;5096357;28;19920;-41
2022/03/11 02:29:37;;;;;;;;;;;0.70;94.10;;;;;;5094799;28;19994;-42
2022/03/11 02:32:03;;;;;;;;;;;0.70;94.40;;;;;;5096505;28;20276;-41
2022/03/11 02:34:29;;;;;;;;;;;0.60;93.90;;;;;;5096385;28;19908;-41
2022/03/11 02:36:54;;;;;;;;;;;0.70;93.90;;;;;;5095725;28;20385;-41
2022/03/11 02:39:20;;;;;;;;;;;0.60;94.10;;;;;;5094343;28;19915;-41
2022/03/11 02:41:49;;;;;;;;;;;0.60;95.00;;;;;;5095898;28;20374;-41
2022/03/11 02:44:15;;;;;;;;;;;0.60;94.80;;;;;;5095774;28;19908;-41
2022/03/11 02:46:40;;;;;;;;;;;0.60;94.80;;;;;;5095852;28;19908;-41
2022/03/11 02:49:06;;;;;;;;;;;0.60;94.40;;;;;;5094046;28;19915;-41
2022/03/11 02:51:31;;;;;;;;;;;0.60;94.60;;;;;;5096038;28;19997;-42
2022/03/11 02:53:57;;;;;;;;;;;0.60;94.00;;;;;;5095729;28;19920;-41
2022/03/11 02:56:23;;;;;;;;;;;0.50;94.90;;;;;;5095945;28;20367;-41
2022/03/11 02:58:49;;;;;;;;;;;0.50;95.30;;;;;;5095901;28;19915;-41
2022/03/11 03:01:14;;;;;;;;;;;0.50;95.00;;;;;;5095767;28;19908;-41
2022/03/11 03:03:40;;;;;;;;;;;0.60;96.00;;;;;;5095790;28;19908;-41
2022/03/11 03:06:06;;;;;;;;;;;0.50;94.70;;;;;;5095737;28;19938;-41
2022/03/11 03:08:32;;;;;;;;;;;0.50;94.30;;;;;;5095387;28;20393;-41
2022/03/11 03:10:57;;;;;;;;;;;0.40;94.50;;;;;;5095346;28;19961;-41
2022/03/11 03:13:23;;;;;;;;;;;0.40;95.30;;;;;;5094079;28;19908;-41
2022/03/11 03:15:49;;;;;;;;;;;0.40;95.30;;;;;;5095412;28;19908;-41
2022/03/11 03:18:14;;;;;;;;;;;0.30;94.40;;;;;;5095894;28;19908;-41
2022/03/11 03:20:40;;;;;;;;;;;0.30;94.40;;;;;;5095180;28;20002;-41
2022/03/11 03:23:05;;;;;;;;;;;0.30;94.50;;;;;;5095117;28;20374;-41
2022/03/11 03:25:31;;;;;;;;;;;0.30;97.20;;;;;;5095170;28;19920;-41
2022/03/11 03:27:56;;;;;;;;;;;0.40;96.40;;;;;;5093681;28;20234;-41
2022/03/11 03:30:22;;;;;;;;;;;0.30;95.60;;;;;;5095167;28;19980;-41
2022/03/11 03:32:48;;;;;;;;;;;0.40;95.30;;;;;;5094937;28;20003;-40
2022/03/11 03:35:13;;;;;;;;;;;0.30;96.20;;;;;;5095183;28;20003;-41
2022/03/11 03:37:39;;;;;;;;;;;0.30;95.20;;;;;;5094933;28;19963;-41
2022/03/11 03:40:05;;;;;;;;;;;0.30;95.70;;;;;;5095106;28;19908;-41
2022/03/11 03:42:31;;;;;;;;;;;0.30;95.30;;;;;;5095086;28;19915;-41
2022/03/11 03:44:56;;;;;;;;;;;0.30;95.00;;;;;;5094879;28;19920;-41
2022/03/11 03:47:22;;;;;;;;;;;0.20;95.10;;;;;;5093706;28;19980;-41
2022/03/11 03:49:47;;;;;;;;;;;0.30;95.60;;;;;;5094853;28;19934;-41
2022/03/11 03:52:13;;;;;;;;;;;0.10;95.20;;;;;;5094561;28;19908;-41
2022/03/11 03:54:39;;;;;;;;;;;0.20;95.70;;;;;;5094450;28;20281;-41
2022/03/11 03:57:06;;;;;;;;;;;0.20;96.20;;;;;;5094434;28;20003;-40
2022/03/11 03:59:32;;;;;;;;;;;0.20;96.30;;;;;;5094611;28;19912;-41
2022/03/11 04:01:57;;;;;;;;;;;0.20;96.70;;;;;;5093077;28;19931;-41
2022/03/11 04:04:23;;;;;;;;;;;0.10;96.20;;;;;;5092928;28;19988;-40
2022/03/11 04:06:48;;;;;;;;;;;0.20;96.90;;;;;;5094509;28;19908;-41
2022/03/11 04:09:14;;;;;;;;;;;0.20;97.80;;;;;;5094151;28;19963;-41
2022/03/11 04:11:42;;;;;;;;;;;0.10;96.40;;;;;;5092952;28;19953;-40
2022/03/11 04:14:08;;;;;;;;;;;0.10;96.00;;;;;;5094053;28;19962;-41
2022/03/11 04:16:33;;;;;;;;;;;0.10;96.10;;;;;;5094121;28;19908;-40
2022/03/11 04:18:59;;;;;;;;;;;0.00;95.90;;;;;;5094637;28;19908;-41
2022/03/11 04:21:25;;;;;;;;;;;0.00;96.60;;;;;;5094336;28;19974;-42
2022/03/11 04:23:50;;;;;;;;;;;0.00;97.60;;;;;;5094375;28;19908;-41
2022/03/11 04:26:17;;;;;;;;;;;0.10;97.50;;;;;;5093932;28;20370;-41
2022/03/11 04:28:42;;;;;;;;;;;0.00;98.80;;;;;;5093980;28;20989;-41
2022/03/11 04:31:09;;;;;;;;;;;0.00;98.70;;;;;;5094109;28;19912;-41
2022/03/11 04:33:35;;;;;;;;;;;0.00;98.30;;;;;;5092801;28;19908;-41
2022/03/11 04:36:01;;;;;;;;;;;0.00;97.30;;;;;;5092705;28;20007;-41
2022/03/11 04:38:27;;;;;;;;;;;0.00;98.20;;;;;;5093954;28;20262;-42
2022/03/11 04:40:52;;;;;;;;;;;0.00;98.30;;;;;;5093716;28;19915;-41
2022/03/11 04:43:18;;;;;;;;;;;0.00;97.40;;;;;;5093921;28;20392;-41
2022/03/11 04:45:44;;;;;;;;;;;0.00;97.50;;;;;;5093841;28;20275;-41
2022/03/11 04:48:09;;;;;;;;;;;0.00;97.30;;;;;;5094017;28;19935;-40
2022/03/11 04:50:35;;;;;;;;;;;0.00;96.50;;;;;;5094111;28;19915;-41
2022/03/11 04:53:00;;;;;;;;;;;-0.10;96.70;;;;;;5093884;28;19952;-41
2022/03/11 04:55:26;;;;;;;;;;;-0.10;97.50;;;;;;5093494;28;20272;-41
2022/03/11 04:57:51;;;;;;;;;;;-0.10;97.50;;;;;;5092372;28;19919;-41
2022/03/11 05:00:17;;;;;;;;;;;-0.10;97.80;;;;;;5093708;28;19915;-41
2022/03/11 05:02:45;;;;;;;;;;;-0.20;97.30;;;;;;5093571;28;19908;-40
2022/03/11 05:05:14;;;;;;;;;;;-0.20;97.80;;;;;;5093689;28;19916;-40
2022/03/11 05:07:40;;;;;;;;;;;-0.20;98.00;;;;;;5093896;28;19908;-41
2022/03/11 05:10:06;;;;;;;;;;;-0.30;98.10;;;;;;5093495;28;19912;-41
2022/03/11 05:12:32;;;;;;;;;;;-0.20;99.50;;;;;;5095387;28;19995;-40
2022/03/11 05:14:57;;;;;;;;;;;-0.20;99.70;;;;;;5097322;28;19939;-41
2022/03/11 05:17:23;;;;;;;;;;;-0.20;99.40;;;;;;5097426;28;20273;-41
2022/03/11 05:19:49;;;;;;;;;;;-0.20;99.00;;;;;;5097693;28;19908;-41
2022/03/11 05:22:14;;;;;;;;;;;-0.30;97.60;;;;;;5097632;28;20351;-40
2022/03/11 05:24:40;;;;;;;;;;;-0.30;98.10;;;;;;5096120;28;20243;-41
2022/03/11 05:27:06;;;;;;;;;;;-0.30;98.00;;;;;;5097383;28;19916;-41
2022/03/11 05:29:32;;;;;;;;;;;-0.30;99.40;;;;;;5097225;28;19928;-41
2022/03/11 05:31:58;;;;;;;;;;;-0.30;98.40;;;;;;5097119;28;19908;-41
2022/03/11 05:34:24;;;;;;;;;;;-0.40;98.70;;;;;;5096089;28;19969;-41
2022/03/11 05:36:49;;;;;;;;;;;-0.40;98.50;;;;;;5097281;28;19958;-41
2022/03/11 05:39:15;;;;;;;;;;;-0.40;98.20;;;;;;5097276;28;19909;-40
2022/03/11 05:41:40;;;;;;;;;;;-0.40;98.30;;;;;;5096730;28;20006;-40
2022/03/11 05:44:06;;;;;;;;;;;-0.40;99.40;;;;;;5095573;28;19987;-41
2022/03/11 05:46:32;;;;;;;;;;;-0.30;99.60;;;;;;5096892;28;20399;-41
2022/03/11 05:48:57;;;;;;;;;;;-0.30;99.90;;;;;;5096790;28;19909;-41
2022/03/11 05:51:23;;;;;;;;;;;-0.30;99.50;;;;;;5097015;28;20002;-42
2022/03/11 05:53:48;;;;;;;;;;;-0.40;97.90;;;;;;5096885;28;19991;-42
2022/03/11 05:56:14;;;;;;;;;;;-0.30;98.90;;;;;;5097332;28;20334;-42
2022/03/11 05:58:39;;;;;;;;;;;-0.40;98.20;;;;;;5096742;28;20429;-41
2022/03/11 06:01:06;;;;;;;;;;;-0.30;98.50;;;;;;5095506;28;19908;-42
2022/03/11 06:03:31;;;;;;;;;;;-0.30;99.10;;;;;;5096709;28;19908;-42
2022/03/11 06:05:57;;;;;;;;;;;-0.20;98.30;;;;;;5096328;28;19924;-42
2022/03/11 06:08:22;;;;;;;;;;;-0.30;98.60;;;;;;5096030;28;19980;-41
2022/03/11 06:10:48;;;;;;;;;;;-0.10;99.60;;;;;;5096434;28;19908;-41
2022/03/11 06:13:14;;;;;;;;;;;0.00;99.50;;;;;;5095003;28;19916;-41
2022/03/11 06:15:40;;;;;;;;;;;0.10;98.90;;;;;;5096137;28;19973;-42
2022/03/11 06:18:06;;;;;;;;;;;0.10;98.70;;;;;;5095965;28;19916;-42
2022/03/11 06:20:32;;;;;;;;;;;0.20;98.70;;;;;;5096226;28;19913;-41
2022/03/11 06:22:58;;;;;;;;;;;0.20;97.40;;;;;;5095584;28;19908;-42
2022/03/11 06:25:23;;;;;;;;;;;0.30;98.30;;;;;;5093800;28;19916;-41
2022/03/11 06:27:49;;;;;;;;;;;0.30;97.90;;;;;;5095785;28;20369;-42
2022/03/11 06:30:15;;;;;;;;;;;0.40;98.10;;;;;;5096018;28;19927;-41
2022/03/11 06:32:41;;;;;;;;;;;0.50;97.90;;;;;;5095956;28;19915;-42
2022/03/11 06:35:07;;;;;;;;;;;0.50;97.70;;;;;;5095695;28;20015;-42
2022/03/11 06:37:33;;;;;;;;;;;0.60;97.80;;;;;;5095640;28;19999;-42
2022/03/11 06:39:59;;;;;;;;;;;0.60;96.30;;;;;;5094336;28;19912;-42
2022/03/11 06:42:24;;;;;;;;;;;0.70;95.80;;;;;;5095642;28;19991;-42
2022/03/11 06:44:50;;;;;;;;;;;0.60;97.20;;;;;;5094990;28;19920;-42
2022/03/11 06:47:15;;;;;;;;;;;0.70;96.90;;;;;;5095195;28;19908;-41
2022/03/11 06:49:41;;;;;;;;;;;0.90;98.10;;;;;;5094137;28;20019;-42
2022/03/11 06:52:07;;;;;;;;;;;1.00;96.90;;;;;;5094069;28;19908;-42
2022/03/11 06:54:32;;;;;;;;;;;1.00;97.10;;;;;;5095178;28;19908;-42
2022/03/11 06:56:58;;;;;;;;;;;1.10;97.40;;;;;;5095397;28;19915;-42
2022/03/11 06:59:23;;;;;;;;;;;1.00;95.90;;;;;;5095266;28;19991;-42
2022/03/11 07:01:49;;;;;;;;;;;0.90;96.10;;;;;;5095334;28;19961;-42
2022/03/11 07:04:14;;;;;;;;;;;1.10;97.00;;;;;;5094996;28;19908;-42
2022/03/11 07:06:40;;;;;;;;;;;1.10;95.90;;;;;;5094927;28;19920;-42
2022/03/11 07:09:05;;;;;;;;;;;1.10;96.30;;;;;;5095025;28;19990;-42
2022/03/11 07:11:32;;;;;;;;;;;1.20;97.30;;;;;;5092750;28;19923;-41
2022/03/11 07:13:57;;;;;;;;;;;1.30;98.00;;;;;;5094773;28;20361;-41
2022/03/11 07:16:23;;;;;;;;;;;1.60;98.60;;;;;;5092970;28;19908;-42
2022/03/11 07:18:48;;;;;;;;;;;1.60;97.70;;;;;;5093111;28;19947;-41
2022/03/11 07:21:14;;;;;;;;;;;1.60;97.60;;;;;;5090776;28;20343;-41
2022/03/11 07:23:39;;;;;;;;;;;1.60;96.10;;;;;;5093187;28;20259;-41
2022/03/11 07:26:05;;;;;;;;;;;1.80;97.20;;;;;;5092961;28;20410;-43
2022/03/11 07:28:31;;;;;;;;;;;1.90;98.10;;;;;;5095633;28;19912;-42
2022/03/11 07:30:56;;;;;;;;;;;2.00;97.20;;;;;;5092815;28;19908;-42
2022/03/11 07:33:22;;;;;;;;;;;2.00;97.20;;;;;;5092853;28;19958;-41
2022/03/11 07:35:47;;;;;;;;;;;2.00;96.90;;;;;;5092475;28;19923;-42
2022/03/11 07:38:13;;;;;;;;;;;2.00;95.80;;;;;;5092862;28;19916;-41
2022/03/11 07:40:38;;;;;;;;;;;1.70;95.70;;;;;;5093020;28;19908;-41
2022/03/11 07:43:06;;;;;;;;;;;1.70;95.60;;;;;;5092661;28;19912;-42
2022/03/11 07:45:31;;;;;;;;;;;1.90;96.80;;;;;;5098074;28;20005;-41
2022/03/11 07:47:57;;;;;;;;;;;1.90;96.10;;;;;;5093879;28;19916;-42
2022/03/11 07:50:22;;;;;;;;;;;2.10;97.00;;;;;;5092039;28;19969;-42
2022/03/11 07:52:48;;;;;;;;;;;2.20;96.10;;;;;;5092743;28;20358;-42
2022/03/11 07:55:13;;;;;;;;;;;2.50;96.50;;;;;;5094207;28;19908;-42
2022/03/11 07:57:42;;;;;;;;;;;2.30;95.80;;;;;;5089751;28;19935;-43
2022/03/11 08:00:08;;;;;;;;;;;2.50;96.40;;;;;;5091551;28;19960;-42
2022/03/11 08:02:34;;;;;;;;;;;2.60;96.70;;;;;;5090948;28;19912;-42
2022/03/11 08:05:00;;;;;;;;;;;2.50;95.50;;;;;;5092358;28;19916;-42
2022/03/11 08:07:26;;;;;;;;;;;2.80;96.80;;;;;;5091809;28;20354;-41
2022/03/11 08:09:51;;;;;;;;;;;3.00;97.40;;;;;;5093959;28;19928;-41
2022/03/11 08:12:17;;;;;;;;;;;3.00;95.90;;;;;;5094075;28;19951;-41
2022/03/11 08:14:43;;;;;;;;;;;3.20;97.50;;;;;;5093913;28;20436;-42
2022/03/11 08:17:09;;;;;;;;;;;3.40;96.10;;;;;;5092598;28;19923;-42
2022/03/11 08:19:35;;;;;;;;;;;3.20;94.40;;;;;;5093171;28;20377;-44
2022/03/11 08:22:02;;;;;;;;;;;3.00;95.90;;;;;;5094494;28;19981;-42
2022/03/11 08:24:28;;;;;;;;;;;3.00;95.60;;;;;;5088051;28;19915;-42
2022/03/11 08:26:54;;;;;;;;;;;3.20;94.90;;;;;;5093059;28;20244;-42
2022/03/11 08:29:20;;;;;;;;;;;3.30;95.60;;;;;;5096289;28;19965;-42
2022/03/11 08:31:49;;;;;;;;;;;3.40;95.40;;;;;;5092908;28;20351;-41
2022/03/11 08:34:15;;;;;;;;;;;3.50;94.50;;;;;;5092097;28;19990;-42
2022/03/11 08:36:41;;;;;;;;;;;3.60;94.90;;;;;;5092675;28;19912;-42
2022/03/11 08:39:06;;;;;;;;;;;3.70;95.40;;;;;;5093200;28;20274;-41
2022/03/11 08:41:32;;;;;;;;;;;4.00;96.00;;;;;;5093365;28;19920;-43
2022/03/11 08:43:58;;;;;;;;;;;4.30;95.80;;;;;;5093177;28;19999;-42
2022/03/11 08:46:24;;;;;;;;;;;4.40;95.20;;;;;;5093178;28;19919;-42
2022/03/11 08:48:49;;;;;;;;;;;4.20;94.00;;;;;;5088127;28;19912;-41
2022/03/11 08:51:15;;;;;;;;;;;4.10;93.50;;;;;;5091787;28;20381;-41
2022/03/11 08:53:40;;;;;;;;;;;4.10;94.00;;;;;;5093452;28;19931;-42
2022/03/11 08:56:06;;;;;;;;;;;4.30;94.10;;;;;;5093467;28;19908;-41
2022/03/11 08:58:31;;;;;;;;;;;4.50;93.90;;;;;;5093248;28;20014;-41
2022/03/11 09:00:57;;;;;;;;;;;4.60;93.90;;;;;;5089055;28;19931;-42
2022/03/11 09:03:23;;;;;;;;;;;4.70;95.00;;;;;;5091774;28;20353;-41
2022/03/11 09:05:48;;;;;;;;;;;4.80;94.00;;;;;;5093222;28;19916;-41
2022/03/11 09:08:14;;;;;;;;;;;4.60;93.90;;;;;;5092713;28;20329;-41
2022/03/11 09:10:39;;;;;;;;;;;4.90;93.60;;;;;;5100509;28;19929;-42
2022/03/11 09:13:05;;;;;;;;;;;4.80;93.40;;;;;;5113659;28;19915;-42
2022/03/11 09:15:30;;;;;;;;;;;4.80;92.90;;;;;;5099257;28;19908;-42
2022/03/11 09:17:56;;;;;;;;;;;4.90;93.30;;;;;;5093030;28;20293;-41
2022/03/11 09:20:22;;;;;;;;;;;5.30;92.90;;;;;;5092999;28;19965;-40
2022/03/11 09:22:48;;;;;;;;;;;5.30;93.70;;;;;;5093166;28;19908;-42
2022/03/11 09:25:14;;;;;;;;;;;5.50;92.60;;;;;;5092681;28;19923;-41
2022/03/11 09:27:40;;;;;;;;;;;5.80;94.00;;;;;;5106356;28;19908;-41
2022/03/11 09:30:06;;;;;;;;;;;6.10;93.20;;;;;;5097001;28;20270;-42
2022/03/11 09:32:32;;;;;;;;;;;6.00;93.50;;;;;;5100488;28;19911;-42
2022/03/11 09:34:59;;;;;;;;;;;5.90;91.10;;;;;;5113133;28;19993;-42
2022/03/11 09:37:25;;;;;;;;;;;5.80;92.80;;;;;;5096823;28;20372;-41
2022/03/11 09:39:51;;;;;;;;;;;6.10;91.70;;;;;;5092524;28;19948;-41
2022/03/11 09:42:16;;;;;;;;;;;6.10;91.50;;;;;;5092476;28;19951;-42
2022/03/11 09:44:47;;;;;;;;;;;6.30;92.80;;;;;;5092831;28;19959;-42
2022/03/11 09:47:14;;;;;;;;;;;6.60;92.60;;;;;;5092518;28;20090;-42
2022/03/11 09:49:40;;;;;;;;;;;6.70;92.20;;;;;;5108033;28;19907;-42
2022/03/11 09:52:05;;;;;;;;;;;6.90;92.50;;;;;;5113026;28;20011;-42
2022/03/11 09:54:31;;;;;;;;;;;7.10;93.50;;;;;;5112825;28;20273;-44
2022/03/11 09:56:57;;;;;;;;;;;6.80;90.10;;;;;;5095918;28;19938;-42
2022/03/11 09:59:23;;;;;;;;;;;6.80;91.50;;;;;;5094043;28;19961;-41
2022/03/11 10:01:49;;;;;;;;;;;6.70;90.80;;;;;;5096044;28;19908;-41
2022/03/11 10:04:15;;;;;;;;;;;6.90;92.30;;;;;;5095345;28;19915;-41
2022/03/11 10:06:44;;;;;;;;;;;7.20;91.30;;;;;;5091909;28;19927;-42
2022/03/11 10:09:30;;;;;;;;;;;7.00;90.70;;;;;;5096211;28;19912;-41
2022/03/11 10:11:56;;;;;;;;;;;7.00;90.20;;;;;;5091619;28;19919;-42
2022/03/11 10:14:35;;;;;;;;;;;7.00;89.00;;;;;;5096390;28;19912;-42
2022/03/11 10:17:04;;;;;;;;;;;6.80;88.40;;;;;;5096163;28;19915;-42
2022/03/11 10:19:30;;;;;;;;;;;7.00;89.90;;;;;;5093484;28;19912;-42
2022/03/11 10:21:57;;;;;;;;;;;7.30;88.50;;;;;;5094351;28;19916;-40
2022/03/11 10:24:23;;;;;;;;;;;7.30;88.80;;;;;;5081829;28;20355;-41
2022/03/11 10:26:55;;;;;;;;;;;7.10;89.10;;;;;;5076557;28;19927;-42
2022/03/11 10:29:34;;;;;;;;;;;7.20;90.60;;;;;;5088937;28;19962;-41
2022/03/11 10:32:00;;;;;;;;;;;7.60;90.80;;;;;;5095637;28;20252;-40
2022/03/11 10:34:29;;;;;;;;;;;8.00;91.30;;;;;;5095541;28;19908;-41
2022/03/11 10:36:55;;;;;;;;;;;8.20;89.00;;;;;;5090714;28;20389;-41
2022/03/11 10:39:27;;;;;;;;;;;7.80;86.30;;;;;;5095164;28;19911;-41
2022/03/11 10:41:53;;;;;;;;;;;7.70;88.90;;;;;;5095610;28;19908;-41
2022/03/11 10:44:21;;;;;;;;;;;8.20;90.60;;;;;;5095250;28;19961;-41
2022/03/11 10:46:46;;;;;;;;;;;8.30;89.60;;;;;;5095033;28;20274;-41
2022/03/11 10:49:22;;;;;;;;;;;8.40;86.80;;;;;;5095143;28;19928;-42
2022/03/11 10:51:47;;;;;;;;;;;8.20;86.20;;;;;;5091666;28;20235;-41
2022/03/11 10:54:14;;;;;;;;;;;8.20;84.90;;;;;;5082796;28;19985;-43
2022/03/11 10:56:40;;;;;;;;;;;8.00;84.80;;;;;;5080096;28;20342;-41
2022/03/11 10:59:27;;;;;;;;;;;8.40;89.60;;;;;;5082928;28;20385;-42
2022/03/11 11:01:54;;;;;;;;;;;8.80;86.50;;;;;;5078073;28;20018;-43
2022/03/11 11:04:20;;;;;;;;;;;8.00;83.30;;;;;;5084166;28;19921;-42
2022/03/11 11:06:45;;;;;;;;;;;7.80;85.40;;;;;;5077778;28;20282;-45
2022/03/11 11:09:12;;;;;;;;;;;8.30;86.10;;;;;;5074267;28;19913;-46
2022/03/11 11:11:38;;;;;;;;;;;8.70;88.50;;;;;;5093530;28;19957;-47
2022/03/11 11:14:07;;;;;;;;;;;8.90;85.90;;;;;;5098422;28;19943;-48
2022/03/11 11:16:39;;;;;;;;;;;9.10;86.80;;;;;;5098238;28;20458;-44
2022/03/11 11:19:06;;;;;;;;;;;9.10;87.80;;;;;;5090013;28;19912;-45
2022/03/11 11:21:33;;;;;;;;;;;8.80;82.50;;;;;;5092123;28;20396;-45
2022/03/11 11:23:59;;;;;;;;;;;8.80;82.20;;;;;;5074194;28;19908;-43
2022/03/11 11:26:25;;;;;;;;;;;9.20;83.20;;;;;;5092932;28;20399;-43
2022/03/11 11:28:52;;;;;;;;;;;9.50;83.00;;;;;;5090741;28;19924;-44
2022/03/11 11:31:18;;;;;;;;;;;9.60;85.50;;;;;;5085484;28;19985;-42
2022/03/11 11:33:45;;;;;;;;;;;9.40;80.50;;;;;;5088462;28;19954;-41
2022/03/11 11:36:10;;;;;;;;;;;9.30;80.50;;;;;;5089125;28;20411;-41
2022/03/11 11:38:38;;;;;;;;;;;9.40;82.10;;;;;;5090672;28;19912;-47
2022/03/11 11:41:21;;;;;;;;;;;9.60;81.30;;;;;;5103824;28;19965;-42
2022/03/11 11:44:08;;;;;;;;;;;9.30;79.20;;;;;;5110982;28;19912;-43
2022/03/11 11:46:36;;;;;;;;;;;8.80;80.80;;;;;;5095692;28;20362;-43
2022/03/11 11:49:16;;;;;;;;;;;8.90;81.20;;;;;;5092891;28;19959;-42
2022/03/11 11:51:41;;;;;;;;;;;9.20;79.90;;;;;;5104749;28;19909;-42
2022/03/11 11:54:11;;;;;;;;;;;9.10;80.20;;;;;;5093998;28;19908;-43
2022/03/11 11:56:39;;;;;;;;;;;9.20;81.30;;;;;;5106797;28;19958;-41
2022/03/11 11:59:09;;;;;;;;;;;9.60;80.30;;;;;;5090188;28;19954;-42
2022/03/11 12:01:41;;;;;;;;;;;9.90;80.20;;;;;;5113159;28;20277;-43
2022/03/11 12:04:19;;;;;;;;;;;9.80;79.50;;;;;;5098396;28;19908;-42
2022/03/11 12:06:55;;;;;;;;;;;9.80;82.40;;;;;;5093706;28;19965;-41
2022/03/11 12:09:36;;;;;;;;;;;9.70;77.80;;;;;;5084936;28;19995;-42
2022/03/11 12:12:01;;;;;;;;;;;9.70;79.20;;;;;;5092223;28;20886;-42
2022/03/11 12:14:29;;;;;;;;;;;9.30;77.50;;;;;;5085517;28;20358;-41
2022/03/11 12:17:06;;;;;;;;;;;9.80;78.50;;;;;;5103069;28;19965;-44
2022/03/11 12:19:38;;;;;;;;;;;9.50;78.10;;;;;;5096694;28;19908;-43
2022/03/11 12:22:23;;;;;;;;;;;9.50;77.50;;;;;;5108028;28;20227;-46
2022/03/11 12:24:59;;;;;;;;;;;9.60;77.30;;;;;;5098542;28;19920;-42
2022/03/11 12:27:43;;;;;;;;;;;9.90;76.80;;;;;;5104316;28;20431;-42
2022/03/11 12:30:10;;;;;;;;;;;10.00;76.80;;;;;;5110904;28;19992;-42
2022/03/11 12:32:38;;;;;;;;;;;9.70;76.10;;;;;;5107014;28;19915;-41
2022/03/11 12:35:04;;;;;;;;;;;9.70;75.20;;;;;;5098992;28;19916;-42
2022/03/11 12:37:29;;;;;;;;;;;10.00;76.20;;;;;;5103044;28;19919;-46
2022/03/11 12:39:57;;;;;;;;;;;9.90;75.40;;;;;;5104194;28;19944;-44
2022/03/11 12:42:42;;;;;;;;;;;10.10;74.50;;;;;;5105034;27;19923;-43
2022/03/11 12:45:08;;;;;;;;;;;9.50;75.00;;;;;;5091661;28;19920;-42
2022/03/11 12:47:35;;;;;;;;;;;9.80;75.30;;;;;;5092871;28;19956;-42
2022/03/11 12:50:01;;;;;;;;;;;10.20;75.30;;;;;;5103603;28;19931;-43
2022/03/11 12:52:34;;;;;;;;;;;10.40;75.70;;;;;;5107658;28;20410;-43
2022/03/11 12:55:00;;;;;;;;;;;10.50;73.70;;;;;;5112001;28;19921;-45
2022/03/11 12:57:25;;;;;;;;;;;10.30;75.20;;;;;;5104878;28;19918;-45
2022/03/11 12:59:51;;;;;;;;;;;10.10;75.40;;;;;;5112701;28;19912;-43
2022/03/11 13:02:17;;;;;;;;;;;10.50;75.50;;;;;;5112542;28;20382;-41
2022/03/11 13:04:45;;;;;;;;;;;10.40;73.10;;;;;;5103116;28;19915;-43
2022/03/11 13:07:16;;;;;;;;;;;10.40;73.10;;;;;;5110695;28;19990;-42
2022/03/11 13:09:41;;;;;;;;;;;10.40;72.70;;;;;;5106853;28;19919;-44
2022/03/11 13:12:20;;;;;;;;;;;10.20;73.40;;;;;;5109251;28;19912;-43
2022/03/11 13:14:45;;;;;;;;;;;10.20;73.20;;;;;;5091577;28;20351;-42
2022/03/11 13:17:11;;;;;;;;;;;10.30;72.50;;;;;;5092568;28;20061;-44
2022/03/11 13:19:42;;;;;;;;;;;10.30;72.50;;;;;;5097142;28;19919;-43
2022/03/11 13:22:10;;;;;;;;;;;10.20;72.40;;;;;;5110145;28;19920;-43
2022/03/11 13:24:35;;;;;;;;;;;10.40;74.00;;;;;;5099340;28;20278;-44
2022/03/11 13:27:04;;;;;;;;;;;10.60;73.60;;;;;;5099714;28;19912;-44
2022/03/11 13:29:30;;;;;;;;;;;10.50;73.20;;;;;;5112001;28;19920;-45
2022/03/11 13:31:57;;;;;;;;;;;10.50;72.40;;;;;;5112715;28;19973;-42
2022/03/11 13:34:26;;;;;;;;;;;10.50;72.70;;;;;;5105693;28;19916;-44
2022/03/11 13:36:52;;;;;;;;;;;10.60;73.00;;;;;;5096493;28;20362;-44
2022/03/11 13:39:19;;;;;;;;;;;10.60;71.80;;;;;;5112578;28;19912;-43
2022/03/11 13:41:46;;;;;;;;;;;10.60;72.00;;;;;;5104215;28;19919;-45
2022/03/11 13:44:11;;;;;;;;;;;10.60;71.80;;;;;;5111231;28;20011;-45
2022/03/11 13:46:38;;;;;;;;;;;10.60;72.30;;;;;;5114421;28;19920;-43
2022/03/11 13:49:05;;;;;;;;;;;10.80;73.60;;;;;;5116268;28;19957;-43
2022/03/11 13:51:51;;;;;;;;;;;11.00;72.70;;;;;;5098668;28;19919;-43
2022/03/11 13:54:28;;;;;;;;;;;11.00;71.90;;;;;;5116248;28;19987;-42
2022/03/11 13:56:57;;;;;;;;;;;10.50;71.80;;;;;;5110998;28;19951;-44
2022/03/11 13:59:34;;;;;;;;;;;10.70;72.10;;;;;;5095955;28;20002;-45
2022/03/11 14:02:06;;;;;;;;;;;10.80;72.40;;;;;;5096146;28;19912;-44
2022/03/11 14:04:32;;;;;;;;;;;10.50;71.60;;;;;;5097169;28;19916;-42
2022/03/11 14:07:05;;;;;;;;;;;10.40;72.10;;;;;;5103199;28;20351;-43
2022/03/11 14:09:31;;;;;;;;;;;10.50;72.60;;;;;;5090057;28;19958;-43
2022/03/11 14:11:56;;;;;;;;;;;10.40;72.90;;;;;;5095908;28;19970;-43
2022/03/11 14:14:26;;;;;;;;;;;10.40;72.10;;;;;;5095920;28;20060;-43
2022/03/11 14:16:52;;;;;;;;;;;10.40;72.50;;;;;;5114383;28;19912;-43
2022/03/11 14:19:17;;;;;;;;;;;10.30;72.60;;;;;;5115550;28;19912;-43
2022/03/11 14:21:43;;;;;;;;;;;10.30;72.10;;;;;;5106426;28;19912;-42
2022/03/11 14:24:09;;;;;;;;;;;10.10;72.60;;;;;;5114800;28;20282;-42